This is the latest recevied weather packets stored in our database for station/object VE3EP-1. If no packets are shown the sender has not sent any weather packets the latest 1 day(s).
| Time | Temp. | Humidity | Pressure | Rain* | Wind** | Luminosity | Snow |
|---|---|---|---|---|---|---|---|
| 1778000528 | 14.44° C | 71% | 1006 hPa | 0 mm | 0.89 m/s, 344° | - | - |
| 1777999929 | 13.89° C | 72% | 1006 hPa | 0 mm | 0.89 m/s, 340° | - | - |
| 1777999328 | 12.78° C | 75% | 1006 hPa | 0 mm | 0.89 m/s, 335° | - | - |
| 1777998728 | 13.33° C | 75% | 1006.2 hPa | 0 mm | 0.89 m/s, 341° | - | - |
| 1777997528 | 12.22° C | 77% | 1006.2 hPa | 0 mm | 0.89 m/s, 345° | - | - |
| 1777996928 | 12.22° C | 76% | 1005.7 hPa | 0 mm | 0.89 m/s, 352° | - | - |
| 1777995128 | 11.67° C | 75% | 1005 hPa | 0 mm | 0.45 m/s, 337° | - | - |
| 1777993928 | 12.22° C | 75% | 1004.9 hPa | 0 mm | 0.45 m/s, 306° | - | - |
| 1777993328 | 12.78° C | 75% | 1004.9 hPa | 0 mm | 0.89 m/s, 326° | - | - |
| 1777992728 | 13.33° C | 74% | 1004.8 hPa | 0 mm | 0.45 m/s, 325° | - | - |
| 1777990928 | 15° C | 71% | 1004.2 hPa | 0 mm | 0.89 m/s, 295° | - | - |
| 1777987328 | 16.67° C | 68% | 1003.9 hPa | 0 mm | 2.24 m/s, 270° | - | - |
| 1777985528 | 15° C | 72% | 1003.6 hPa | 0 mm | 2.68 m/s, 256° | - | - |
| 1777984928 | 14.44° C | 72% | 1003.5 hPa | 0 mm | 2.68 m/s, 254° | - | - |
| 1777980729 | 15° C | 73% | 1003.2 hPa | 0 mm | 3.58 m/s, 260° | - | - |
| 1777980128 | 14.44° C | 74% | 1003.2 hPa | 0 mm | 3.13 m/s, 263° | - | - |
| 1777979528 | 13.89° C | 77% | 1003.2 hPa | 0 mm | 2.68 m/s, 249° | - | - |
| 1777978929 | 13.33° C | 78% | 1002.8 hPa | 0 mm | 3.13 m/s, 250° | - | - |
| 1777978329 | 13.33° C | 77% | 1003 hPa | 0 mm | 2.68 m/s, 249° | - | - |
| 1777977728 | 13.33° C | 77% | 1002.9 hPa | 0 mm | 3.13 m/s, 245° | - | - |
| 1777977128 | 13.33° C | 77% | 1002.8 hPa | 0 mm | 3.13 m/s, 240° | - | - |
| 1777976529 | 13.33° C | 76% | 1002.5 hPa | 0 mm | 3.13 m/s, 244° | - | - |
| 1777975929 | 13.89° C | 75% | 1002.5 hPa | 0 mm | 3.13 m/s, 239° | - | - |
| 1777974729 | 14.44° C | 75% | 1002.4 hPa | 0 mm | 3.58 m/s, 254° | - | - |
| 1777974129 | 14.44° C | 75% | 1002.4 hPa | 0 mm | 3.13 m/s, 248° | - | - |
* Rain latest hour (hover to see other rain measurements)
** Current wind speed in m/s (hover to see current wind gust speed)